Enter the Airport ICAO Code

Search by Airport or City

Current Weather

MROC | Juan Santamaría International Airport

San José, Costa Rica

Last Update 29 Minutes Ago

Clear Sky

Temperature of 21 ºC

Light to Moderate Winds from East

Temperature

21 ºC

Dew Point Temperature

18 ºC

Relative Humidity

83.08 %

Wind Direction

East (070º, Without Significant Variations)

Wind Velocity

13 km/h (07 kt)

Gusts

None

Visibility

No Significant Reductions

Sea Level Pressure

29.99 inHg (Inches of Mercury)

Layers of Clouds

None

METAR MROC 191100Z 07007KT CAVOK 21/18 A2999 NOSIG

Weather Forecast

MROC | Juan Santamaría International Airport

San José, Costa Rica

Forecast valid for the next 25 Hours

In 1 hour it is expected the begining of:

Partly Cloudy Sky

Light to Moderate Winds from East

In 5 to 7 hours it is expected the begining of:

Light to Moderate Winds from West

In 8 hours it is expected the begining of 3 hours with intermittent periods of:

Rain

In 12 hours it is expected the begining of 4 hours with intermittent periods of:

Rain, Fog Banks

In 17 to 19 hours it is expected the begining of:

Light Winds from East

Maximum Temperature

29 ºC in 6 Hours

Minimum Temperature

19 ºC in 24 Hours

TAF MROC 191100Z 1912/2012 08005KT 9999 FEW035 SCT100 TX29/1917Z TN19/2011Z BECMG 1916/1918 25006KT TEMPO 1919/1922 SHRA SCT020TCU TEMPO 1923/2003 RA BCFG BKN010 BECMG 2004/2006 10004KT